Point Mugu, California
Current Conditions -  °F | °C
As of 12:56 AM on Sunday 26 Oct 2014 (Local Time) from KNTD Reporting Station
Clear Clear  
Wind Chill: 62°   Ceiling: Unl
Heat Index: 62°   Visibility: 10mi
Dew Point: 58°   Wind: 5mph
Humidity: 86%   Direction: 20°NNE
Pressure: 30.01"   Gusts: NA
Location:  34.12°N, 119.12°W
Report Text: KNTD 260756Z AUTO 02004KT 10SM CLR 17/14 A3001 RMK AO2 SLP163 T01670144 402500144 $
Loading
Personal Weather Stations






























Interactive Weather Map
Tropical Storm Tracking
New forecast layout! Learn more

10-Day Weather Forecast

Advertisements
Track Severe Weather on mobile